Flight Track Log - Related Links

Times and Time Zones

All times are in EST time to prevent confusion due to time zone crossing. See the CPT8773 flight status page for this flight to view local times or setup timezone preferences in your user account.

Time Position Orientation Groundspeed Altitude Reporting Facility
EST Latitude Longitude Course Direction KTS MPH feet Rate Location/Type
Mon 08:55:09 AM 42.9625 -106.5017 305° West 130 150 7,600  Level Denver Center
Mon 08:56:10 AM 42.9975 -106.5058 355° North 132 152 8,600 836 Climbing Denver Center
Mon 08:57:11 AM 43.0347 -106.5103 355° North 127 146 9,300 689 Climbing Denver Center
Mon 08:58:12 AM 43.0636 -106.5128 356° North 120 138 10,000 590 Climbing Denver Center
Mon 08:59:00 AM 43.1337 -106.8092 307° West  Level Estimated
Mon 08:59:13 AM 43.0925 -106.5178 353° North 114 131 10,500  Level Denver Center
Mon 09:00:00 AM 43.1562 -106.8438 305° West  Level Estimated
Mon 09:00:14 AM 43.1264 -106.5208 356° North 111 128 11,200  Level Denver Center
Mon 09:01:15 AM 43.1494 -106.5261 351° North 100 115 11,700 393 Climbing Denver Center
Mon 09:02:16 AM 43.1769 -106.5300 354° North 102 117 12,000 148 Climbing Denver Center
Mon 09:03:17 AM 43.2133 -106.5431 345° North 120 138 12,000  Level Denver Center
Mon 09:04:17 AM 43.2439 -106.5622 335° Northwest 126 145 12,000  Level Denver Center
Mon 09:05:18 AM 43.2611 -106.5986 303° West 123 142 12,000  Level Denver Center
Mon 09:06:19 AM 43.2817 -106.6422 303° West 122 140 12,000 49 Level Denver Center
Mon 09:07:21 AM 43.2981 -106.6808 300° West 120 138 12,100  Climbing Salt Lake Center
Mon 09:08:21 AM 43.3192 -106.7158 310° West 123 142 12,000  Descending Salt Lake Center
Mon 09:09:22 AM 43.3414 -106.7575 306° West 122 140 12,100 49 Climbing Salt Lake Center
Mon 09:10:23 AM 43.3597 -106.7906 307° West 117 135 12,100  Level Salt Lake Center
Mon 09:11:24 AM 43.3767 -106.8236 305° West 113 130 12,100  Level Salt Lake Center
Mon 09:12:24 AM 43.3983 -106.8636 307° West 115 132 12,100  Level Salt Lake Center
Mon 09:13:25 AM 43.4167 -106.8981 306° West 117 135 12,100  Level Salt Lake Center
Mon 09:14:26 AM 43.4375 -106.9356 307° West 115 132 12,100 -50 Level Salt Lake Center
Mon 09:15:26 AM 43.4564 -106.9733 305° West 118 136 12,000 -50 Descending Salt Lake Center
Mon 09:16:27 AM 43.4736 -107.0092 304° West 115 132 12,000  Level Salt Lake Center
Mon 09:17:28 AM 43.4906 -107.0411 306° West 107 123 12,000  Level Salt Lake Center
Mon 09:18:29 AM 43.5072 -107.0736 305° West 105 121 12,000  Level Salt Lake Center
Mon 09:19:30 AM 43.5233 -107.1053 305° West 103 119 12,000  Level Salt Lake Center
Mon 09:20:30 AM 43.5403 -107.1353 308° West 100 115 12,000  Level Salt Lake Center
Mon 09:21:31 AM 43.5586 -107.1678 308° West 105 121 12,000  Level Salt Lake Center
Mon 09:22:32 AM 43.5783 -107.2014 309° West 111 128 12,000 49 Level Salt Lake Center
Mon 09:23:33 AM 43.5967 -107.2372 305° West 112 129 12,100  Climbing Salt Lake Center
Mon 09:24:34 AM 43.6178 -107.2747 308° West 117 135 12,000 -49 Descending Salt Lake Center
Mon 09:25:35 AM 43.6408 -107.3131 310° West 123 142 12,000  Level Salt Lake Center
Mon 09:26:36 AM 43.6608 -107.3536 304° West 126 145 12,000  Level Salt Lake Center
Mon 09:27:37 AM 43.6842 -107.4047 302° West 128 147 12,000  Level Salt Lake Center
Mon 09:28:38 AM 43.7042 -107.4433 306° West 127 146 12,000  Level Salt Lake Center
Mon 09:29:38 AM 43.7247 -107.4831 306° West 127 146 12,000  Level Salt Lake Center
Mon 09:30:39 AM 43.7464 -107.5211 308° West 127 146 12,000  Level Salt Lake Center
Mon 09:31:40 AM 43.7658 -107.5581 306° West 124 143 12,000  Level Salt Lake Center
Mon 09:32:41 AM 43.7844 -107.5950 305° West 121 139 12,000  Level Salt Lake Center
Mon 09:33:42 AM 43.8039 -107.6308 307° West 119 137 12,000  Level Salt Lake Center
Mon 09:34:44 AM 43.8231 -107.6678 306° West 118 136 12,000  Level Salt Lake Center
Mon 09:35:45 AM 43.8422 -107.7017 308° West 116 133 12,000  Level Salt Lake Center
Mon 09:36:46 AM 43.8619 -107.7389 306° West 117 135 12,000  Level Salt Lake Center
Mon 09:37:47 AM 43.8822 -107.7761 307° West 119 137 12,000  Level Salt Lake Center
Mon 09:38:48 AM 43.9008 -107.8122 306° West 118 136 12,000  Level Salt Lake Center
Mon 09:39:49 AM 43.9239 -107.8586 305° West 119 137 12,000  Level Salt Lake Center
Mon 09:40:50 AM 43.9433 -107.8958 306° West 120 138 12,000  Level Salt Lake Center
Mon 09:41:51 AM 43.9619 -107.9306 307° West 117 135 12,000  Level Salt Lake Center
Mon 09:42:52 AM 43.9803 -107.9667 305° West 115 132 12,000  Level Salt Lake Center
Mon 09:43:54 AM 43.9981 -108.0031 304° West 115 132 12,000 -98 Level Salt Lake Center
Mon 09:44:55 AM 44.0172 -108.0394 306° West 116 133 11,800 -295 Descending Salt Lake Center
Mon 09:45:56 AM 44.0381 -108.0772 308° West 119 137 11,400 -443 Descending Salt Lake Center
Mon 09:46:57 AM 44.0592 -108.1167 307° West 122 140 10,900 -393 Descending Salt Lake Center
Mon 09:47:58 AM 44.0800 -108.1589 304° West 127 146 10,600 -293 Descending Salt Lake Center
Mon 09:49:00 AM 44.0997 -108.1981 305° West 127 146 10,300 -244 Descending Salt Lake Center
Mon 09:50:01 AM 44.1194 -108.2364 306° West 124 143 10,100 -148 Descending Salt Lake Center
Mon 09:51:02 AM 44.1431 -108.2814 306° West 122 140 10,000  Descending Salt Lake Center
Mon 09:52:03 AM 44.1608 -108.3156 306° West 118 136 10,100 49 Climbing Salt Lake Center
Mon 09:53:05 AM 44.1783 -108.3511 304° West 114 131 10,100 -49 Level Salt Lake Center
Mon 09:54:06 AM 44.1969 -108.3886 305° West 115 132 10,000  Descending Salt Lake Center
Mon 09:55:07 AM 44.2156 -108.4250 306° West 115 132 10,100 49 Climbing Salt Lake Center
Mon 09:56:08 AM 44.2347 -108.4614 306° West 116 133 10,100  Level Salt Lake Center
Mon 09:57:10 AM 44.2550 -108.4994 307° West 118 136 10,100  Level Salt Lake Center
Mon 09:58:11 AM 44.2747 -108.5397 304° West 121 139 10,100  Level Salt Lake Center
Mon 09:59:12 AM 44.2942 -108.5775 306° West 122 140 10,100 -49 Level Salt Lake Center
Mon 10:00:14 AM 44.3131 -108.6156 305° West 121 139 10,000 -97 Descending Salt Lake Center

Login

Don't have an account? Register now (free) for customized features, flight alerts, and more!